createdAt,value
2019-03-21T00:02:23.730Z,3.47
2019-03-21T00:07:17.644Z,3.20
2019-03-21T00:12:11.700Z,3.37
2019-03-21T00:17:05.732Z,3.43
2019-03-21T00:21:59.612Z,3.80
2019-03-21T00:26:53.541Z,3.73
2019-03-21T00:31:47.433Z,3.27
2019-03-21T00:36:41.589Z,3.83
2019-03-21T00:41:35.590Z,3.97
2019-03-21T00:46:29.577Z,3.67
2019-03-21T00:51:23.464Z,3.50
2019-03-21T00:56:17.350Z,3.60
2019-03-21T01:01:11.241Z,3.20
2019-03-21T01:06:05.130Z,2.83
2019-03-21T01:10:59.235Z,3.27
2019-03-21T01:15:53.226Z,2.70
2019-03-21T01:20:47.225Z,2.80
2019-03-21T01:25:42.795Z,3.00
2019-03-21T01:30:36.691Z,2.80
2019-03-21T01:35:30.755Z,3.60
2019-03-21T01:40:25.091Z,3.10
2019-03-21T01:45:19.734Z,2.77
2019-03-21T01:50:14.155Z,3.00
2019-03-21T01:55:08.661Z,2.87
2019-03-21T02:00:02.612Z,2.77
2019-03-21T02:04:56.558Z,2.70
2019-03-21T02:09:50.477Z,2.13
2019-03-21T02:14:52.117Z,2.33
2019-03-21T02:19:38.543Z,2.00
2019-03-21T02:24:32.564Z,2.30
2019-03-21T02:29:26.473Z,2.80
2019-03-21T02:34:20.472Z,2.87
2019-03-21T02:39:14.378Z,3.33
2019-03-21T02:44:08.291Z,2.90
2019-03-21T02:49:02.496Z,2.70
2019-03-21T02:53:56.375Z,2.50
2019-03-21T02:58:50.519Z,2.60
2019-03-21T03:03:44.413Z,3.07
2019-03-21T03:08:38.294Z,3.00
2019-03-21T03:13:32.177Z,3.50
2019-03-21T03:18:26.145Z,4.17
2019-03-21T03:23:20.031Z,3.90
2019-03-21T03:28:15.081Z,4.20
2019-03-21T03:33:08.970Z,4.90
2019-03-21T03:38:02.888Z,4.30
2019-03-21T03:42:56.772Z,4.53
2019-03-21T03:47:50.707Z,4.90
2019-03-21T03:52:44.603Z,5.47
2019-03-21T03:57:38.706Z,5.30
2019-03-21T04:02:32.706Z,6.10
2019-03-21T04:07:26.614Z,6.80
2019-03-21T04:12:20.505Z,6.23
2019-03-21T04:17:14.730Z,6.70
2019-03-21T04:22:08.673Z,7.07
2019-03-21T04:27:02.840Z,6.60
2019-03-21T04:31:56.822Z,7.63
2019-03-21T04:36:50.963Z,7.67
2019-03-21T04:41:44.896Z,7.30
2019-03-21T04:46:38.941Z,7.20
2019-03-21T04:51:32.848Z,7.87
2019-03-21T04:56:27.025Z,7.30
2019-03-21T05:01:20.932Z,8.20
2019-03-21T05:06:14.858Z,7.63
2019-03-21T05:11:08.800Z,7.17
2019-03-21T05:16:14.084Z,7.10
2019-03-21T05:20:56.840Z,7.40
2019-03-21T05:25:50.920Z,7.50
2019-03-21T05:30:46.654Z,8.10
2019-03-21T05:35:40.759Z,7.40
2019-03-21T05:40:34.659Z,8.13
2019-03-21T05:45:28.730Z,7.97
2019-03-21T05:50:22.627Z,7.03
2019-03-21T05:55:16.704Z,6.67
2019-03-21T06:00:12.623Z,7.63
2019-03-21T06:05:06.584Z,7.30
2019-03-21T06:10:00.530Z,6.70
2019-03-21T06:14:56.156Z,6.23
2019-03-21T06:19:52.960Z,5.53
2019-03-21T06:25:01.316Z,5.50
2019-03-21T06:29:55.471Z,5.63
2019-03-21T06:34:49.626Z,5.17
2019-03-21T06:39:43.665Z,4.83
2019-03-21T06:44:37.891Z,4.10
2019-03-21T06:49:31.965Z,5.33
2019-03-21T06:54:25.955Z,3.33
2019-03-21T06:59:20.163Z,3.40
2019-03-21T07:04:14.190Z,3.80
2019-03-21T07:09:08.407Z,4.23
2019-03-21T07:14:02.303Z,4.83
2019-03-21T07:18:56.402Z,4.17
2019-03-21T07:23:50.402Z,3.13
2019-03-21T07:28:44.385Z,3.00
2019-03-21T07:33:38.384Z,2.47
2019-03-21T07:38:32.381Z,2.00
2019-03-21T07:43:26.269Z,2.30
2019-03-21T07:48:20.364Z,2.30
2019-03-21T07:53:14.266Z,2.00
2019-03-21T07:58:08.347Z,1.90
2019-03-21T08:03:02.235Z,2.17
2019-03-21T08:07:56.337Z,1.50
2019-03-21T08:12:50.229Z,1.60
2019-03-21T08:17:44.334Z,1.70
2019-03-21T08:22:38.338Z,1.20
2019-03-21T08:27:32.358Z,1.40
2019-03-21T08:32:26.321Z,1.30
2019-03-21T08:37:20.293Z,1.50
2019-03-21T08:42:14.220Z,1.27
2019-03-21T08:47:08.296Z,1.43
2019-03-21T08:52:02.199Z,1.10
2019-03-21T08:56:56.281Z,1.33
2019-03-21T09:01:50.388Z,1.37
2019-03-21T09:06:44.564Z,1.60
2019-03-21T09:11:38.485Z,1.33
2019-03-21T09:16:32.571Z,1.13
2019-03-21T09:21:26.463Z,1.37
2019-03-21T09:26:20.551Z,1.40
2019-03-21T09:31:14.435Z,1.00
2019-03-21T09:36:08.530Z,1.30
2019-03-21T09:41:02.411Z,1.10
2019-03-21T09:45:56.527Z,1.40
2019-03-21T09:50:50.515Z,1.00
2019-03-21T09:55:44.516Z,0.90
2019-03-21T10:00:38.516Z,1.00
2019-03-21T10:05:32.412Z,1.00
2019-03-21T10:10:27.189Z,0.90
2019-03-21T10:15:21.102Z,0.90
2019-03-21T10:20:14.992Z,0.73
2019-03-21T10:25:09.067Z,0.90
2019-03-21T10:30:03.081Z,1.00
2019-03-21T10:34:57.081Z,0.90
2019-03-21T10:39:51.071Z,0.70
2019-03-21T10:44:44.969Z,0.77
2019-03-21T10:49:38.866Z,0.90
2019-03-21T10:54:33.052Z,0.77
2019-03-21T10:59:27.042Z,0.70
2019-03-21T11:04:20.933Z,0.70
2019-03-21T11:09:15.086Z,0.80
2019-03-21T11:14:08.987Z,0.53
2019-03-21T11:19:02.871Z,0.80
2019-03-21T11:23:56.745Z,0.80
2019-03-21T11:28:50.682Z,0.60
2019-03-21T11:33:44.563Z,0.60
2019-03-21T11:38:38.678Z,0.60
2019-03-21T11:43:32.577Z,0.60
2019-03-21T11:48:26.694Z,0.50
2019-03-21T11:53:20.602Z,0.80
2019-03-21T11:58:14.660Z,0.63
2019-03-21T12:03:08.596Z,0.60
2019-03-21T12:08:02.635Z,0.73
2019-03-21T12:12:56.534Z,0.77
2019-03-21T12:17:50.429Z,0.60
2019-03-21T12:22:47.183Z,0.67
2019-03-21T12:27:38.614Z,0.80
2019-03-21T12:32:33.038Z,0.70
2019-03-21T12:37:27.207Z,0.80
2019-03-21T12:42:21.082Z,0.80
2019-03-21T12:47:15.243Z,0.67
2019-03-21T12:52:09.206Z,0.73
2019-03-21T12:57:03.180Z,0.67
2019-03-21T13:01:57.072Z,0.60
2019-03-21T13:06:51.169Z,0.70
2019-03-21T13:11:45.170Z,0.80
2019-03-21T13:16:39.183Z,0.73
2019-03-21T13:21:33.082Z,0.50
2019-03-21T13:26:27.123Z,0.73
2019-03-21T13:31:21.156Z,0.70
2019-03-21T13:36:15.201Z,1.00
2019-03-21T13:41:09.135Z,0.80
2019-03-21T13:46:03.120Z,0.77
2019-03-21T13:50:57.129Z,0.60
2019-03-21T13:55:51.107Z,0.90
2019-03-21T14:00:45.091Z,0.80
2019-03-21T14:05:39.088Z,0.80
2019-03-21T14:10:33.469Z,0.80
2019-03-21T14:15:27.389Z,0.90
2019-03-21T14:20:21.355Z,0.80
2019-03-21T14:25:15.437Z,0.80
2019-03-21T14:30:09.773Z,0.80
2019-03-21T14:35:04.057Z,0.97
2019-03-21T14:39:57.947Z,0.90
2019-03-21T14:44:51.964Z,0.70
2019-03-21T14:49:45.974Z,0.80
2019-03-21T14:54:39.892Z,0.60
2019-03-21T14:59:33.944Z,0.90
2019-03-21T15:04:27.849Z,0.93
2019-03-21T15:09:21.730Z,0.63
2019-03-21T15:14:15.610Z,0.70
2019-03-21T15:19:09.627Z,1.30
2019-03-21T15:24:04.241Z,1.83
2019-03-21T15:28:58.230Z,2.00
2019-03-21T15:33:52.133Z,1.60
2019-03-21T15:38:46.202Z,1.70
2019-03-21T15:43:40.183Z,1.57
2019-03-21T15:48:34.196Z,1.97
2019-03-21T15:53:28.097Z,1.83
2019-03-21T15:58:22.189Z,2.20
2019-03-21T16:03:16.121Z,1.93
2019-03-21T16:08:10.177Z,2.30
2019-03-21T16:13:04.115Z,2.17
2019-03-21T16:17:58.159Z,2.40
2019-03-21T16:22:52.048Z,2.67
2019-03-21T16:27:46.162Z,1.80
2019-03-21T16:32:40.133Z,2.03
2019-03-21T16:37:34.138Z,1.80
2019-03-21T16:42:28.123Z,2.17
2019-03-21T16:47:22.118Z,1.87
2019-03-21T16:52:16.128Z,1.33
2019-03-21T16:57:10.112Z,1.00
2019-03-21T17:02:04.095Z,1.70
2019-03-21T17:06:58.093Z,1.20
2019-03-21T17:11:52.078Z,1.20
2019-03-21T17:16:46.089Z,1.30
2019-03-21T17:21:40.097Z,1.40
2019-03-21T17:26:33.989Z,1.40
2019-03-21T17:31:28.055Z,1.20
2019-03-21T17:36:22.045Z,1.33
2019-03-21T17:41:15.929Z,1.00
2019-03-21T17:46:10.040Z,1.33
2019-03-21T17:51:04.126Z,1.57
2019-03-21T17:55:58.339Z,1.10
2019-03-21T18:00:52.246Z,1.50
2019-03-21T18:05:46.319Z,1.20
2019-03-21T18:10:40.239Z,1.40
2019-03-21T18:15:34.295Z,1.53
2019-03-21T18:20:28.282Z,1.60
2019-03-21T18:25:22.165Z,1.57
2019-03-21T18:30:16.301Z,1.53
2019-03-21T18:35:10.187Z,1.40
2019-03-21T18:40:04.113Z,2.00
2019-03-21T18:44:58.303Z,1.90
2019-03-21T18:49:52.253Z,1.60
2019-03-21T18:54:46.259Z,1.70
2019-03-21T18:59:40.189Z,1.53
2019-03-21T19:04:34.089Z,1.40
2019-03-21T19:09:28.261Z,1.47
2019-03-21T19:14:22.168Z,1.67
2019-03-21T19:19:16.071Z,2.20
2019-03-21T19:24:11.533Z,1.40
2019-03-21T19:29:04.217Z,1.70
2019-03-21T19:33:58.140Z,1.53
2019-03-21T19:38:52.203Z,1.93
2019-03-21T19:43:46.150Z,1.53
2019-03-21T19:48:49.860Z,1.67
2019-03-21T19:53:34.116Z,1.90
2019-03-21T19:58:28.187Z,1.93
2019-03-21T20:03:22.076Z,1.57
2019-03-21T20:08:16.166Z,1.60
2019-03-21T20:13:10.069Z,1.40
2019-03-21T20:18:04.295Z,1.77
2019-03-21T20:22:58.176Z,1.50
2019-03-21T20:27:52.088Z,1.90
2019-03-21T20:32:46.016Z,1.93
2019-03-21T20:37:40.125Z,1.63
2019-03-21T20:42:34.015Z,1.70
2019-03-21T20:47:28.075Z,1.77
2019-03-21T20:52:21.960Z,1.80
2019-03-21T20:57:16.101Z,1.63
2019-03-21T21:02:10.002Z,1.80
2019-03-21T21:07:04.097Z,4.53
2019-03-21T21:11:58.015Z,4.67
2019-03-21T21:16:52.079Z,5.93
2019-03-21T21:21:45.985Z,6.00
2019-03-21T21:26:40.059Z,6.93
2019-03-21T21:31:33.962Z,6.73
2019-03-21T21:36:27.855Z,6.67
2019-03-21T21:41:21.749Z,8.60
2019-03-21T21:46:15.721Z,8.70
2019-03-21T21:51:09.625Z,8.27
2019-03-21T21:56:04.316Z,9.27
2019-03-21T22:00:58.239Z,8.87
2019-03-21T22:05:52.308Z,9.50
2019-03-21T22:10:46.213Z,10.10
2019-03-21T22:15:40.126Z,11.23
2019-03-21T22:20:34.286Z,10.20
2019-03-21T22:25:28.283Z,10.23
2019-03-21T22:30:22.227Z,8.07
2019-03-21T22:35:16.274Z,7.45
2019-03-21T22:40:10.353Z,9.13
2019-03-21T22:45:04.815Z,8.30
2019-03-21T22:49:58.873Z,7.13
2019-03-21T22:54:52.853Z,6.10
2019-03-21T22:59:46.839Z,4.80
2019-03-21T23:04:40.851Z,4.30
2019-03-21T23:09:34.739Z,4.03
2019-03-21T23:14:28.640Z,3.40
2019-03-21T23:19:22.528Z,3.30
2019-03-21T23:24:16.523Z,3.10
2019-03-21T23:29:10.519Z,2.57
2019-03-21T23:34:04.440Z,4.63
2019-03-21T23:38:58.492Z,3.73
2019-03-21T23:43:52.384Z,4.00
2019-03-21T23:48:46.266Z,4.77
2019-03-21T23:53:40.165Z,4.97
2019-03-21T23:58:34.154Z,4.30
